Time;durP1;ratioP1;P1;durP2;ratioP2;P2;SDS_P1;SDS_P2;PMS_P1;PMS_P2;Temp;Humidity;BMP_temperature;BMP_pressure;BME280_temperature;BME280_humidity;BME280_pressure;Samples;Min_cycle;Max_cycle;Signal;HPM_P1;HPM_P2
2022/08/10 00:00:21;;;;;;;7.72;4.15;;;;;;;;;;5093443;28;20024;-75
2022/08/10 00:02:52;;;;;;;5.47;3.83;;;;;;;;;;5093644;28;20072;-75
2022/08/10 00:05:18;;;;;;;7.13;4.50;;;;;;;;;;5093391;28;20027;-74
2022/08/10 00:07:45;;;;;;;6.95;4.50;;;;;;;;;;5093510;28;20030;-75
2022/08/10 00:10:13;;;;;;;7.85;4.38;;;;;;;;;;5093492;28;20036;-75
2022/08/10 00:12:39;;;;;;;6.13;4.63;;;;;;;;;;5093421;28;20030;-74
2022/08/10 00:15:06;;;;;;;9.55;5.13;;;;;;;;;;5093117;28;20042;-74
2022/08/10 00:17:33;;;;;;;8.63;5.28;;;;;;;;;;5093274;28;20032;-75
2022/08/10 00:19:59;;;;;;;9.02;5.65;;;;;;;;;;5093224;28;20016;-74
2022/08/10 00:22:25;;;;;;;11.27;5.50;;;;;;;;;;5093206;28;20038;-74
2022/08/10 00:24:56;;;;;;;9.43;5.50;;;;;;;;;;5093569;28;20020;-75
2022/08/10 00:27:23;;;;;;;9.13;5.93;;;;;;;;;;5093357;28;20050;-75
2022/08/10 00:29:49;;;;;;;10.35;5.53;;;;;;;;;;5092808;28;20020;-74
2022/08/10 00:32:16;;;;;;;8.95;5.57;;;;;;;;;;5093198;28;20027;-75
2022/08/10 00:34:42;;;;;;;9.88;5.97;;;;;;;;;;5093036;28;20024;-74
2022/08/10 00:37:08;;;;;;;9.25;5.75;;;;;;;;;;5092933;28;20032;-74
2022/08/10 00:39:35;;;;;;;8.63;5.50;;;;;;;;;;5092562;28;20546;-74
2022/08/10 00:42:01;;;;;;;8.05;5.57;;;;;;;;;;5092167;28;20028;-73
2022/08/10 00:44:27;;;;;;;9.00;5.82;;;;;;;;;;5093139;28;20040;-74
2022/08/10 00:46:54;;;;;;;9.00;5.72;;;;;;;;;;5092667;28;20008;-74
2022/08/10 00:49:21;;;;;;;10.57;6.35;;;;;;;;;;5092809;28;20364;-74
2022/08/10 00:51:47;;;;;;;8.73;6.20;;;;;;;;;;5092761;28;20389;-74
2022/08/10 00:54:13;;;;;;;12.13;6.13;;;;;;;;;;5092651;28;20028;-74
2022/08/10 00:56:40;;;;;;;11.07;6.55;;;;;;;;;;5092760;28;20036;-74
2022/08/10 00:59:06;;;;;;;9.05;6.30;;;;;;;;;;5092572;28;20020;-74
2022/08/10 01:01:32;;;;;;;8.13;5.95;;;;;;;;;;5092931;28;20034;-74
2022/08/10 01:04:00;;;;;;;9.77;6.20;;;;;;;;;;5092549;28;20028;-74
2022/08/10 01:06:37;;;;;;;9.45;5.82;;;;;;;;;;5091431;28;20023;-74
2022/08/10 01:09:09;;;;;;;13.88;5.60;;;;;;;;;;5092694;28;20031;-74
2022/08/10 01:11:43;;;;;;;9.05;5.55;;;;;;;;;;5092181;28;20031;-74
2022/08/10 01:14:29;;;;;;;13.63;5.72;;;;;;;;;;5092827;28;20024;-75
2022/08/10 01:17:16;;;;;;;10.20;5.85;;;;;;;;;;5030124;28;20033;-74
2022/08/10 01:20:05;;;;;;;9.32;5.68;;;;;;;;;;5029914;28;20050;-75
2022/08/10 01:22:50;;;;;;;11.20;5.88;;;;;;;;;;5030246;28;20049;-74
2022/08/10 01:25:29;;;;;;;10.27;6.22;;;;;;;;;;5030219;28;20021;-74
2022/08/10 01:27:55;;;;;;;11.35;5.45;;;;;;;;;;5030049;28;20034;-74
2022/08/10 01:30:22;;;;;;;10.35;5.57;;;;;;;;;;5030058;28;20033;-75
2022/08/10 01:33:04;;;;;;;8.52;5.75;;;;;;;;;;5013681;28;20030;-74
2022/08/10 01:35:34;;;;;;;8.55;5.70;;;;;;;;;;5030028;28;20042;-75
2022/08/10 01:38:01;;;;;;;6.53;5.25;;;;;;;;;;5029799;28;20048;-74
2022/08/10 01:40:28;;;;;;;11.68;5.95;;;;;;;;;;5029397;28;20091;-75
2022/08/10 01:42:56;;;;;;;9.27;5.60;;;;;;;;;;5029962;28;20496;-74
2022/08/10 01:45:24;;;;;;;11.02;6.13;;;;;;;;;;5029960;28;20037;-74
2022/08/10 01:50:44;;;;;;;10.23;5.80;;;;;;;;;;5032344;28;20048;-74
2022/08/10 01:53:13;;;;;;;9.50;5.70;;;;;;;;;;5039739;28;20456;-74
2022/08/10 01:55:40;;;;;;;7.50;5.30;;;;;;;;;;5075469;28;20036;-74
2022/08/10 01:58:07;;;;;;;6.80;5.35;;;;;;;;;;5075843;28;20429;-74
2022/08/10 02:00:36;;;;;;;11.45;5.90;;;;;;;;;;5075680;28;20028;-74
2022/08/10 02:03:04;;;;;;;8.68;5.30;;;;;;;;;;5075906;28;20016;-74
2022/08/10 02:05:31;;;;;;;11.43;5.72;;;;;;;;;;5075723;28;20024;-75
2022/08/10 02:07:59;;;;;;;7.93;4.72;;;;;;;;;;5075380;28;20023;-74
2022/08/10 02:10:26;;;;;;;6.43;4.68;;;;;;;;;;5075353;28;20070;-75
2022/08/10 02:12:55;;;;;;;7.60;5.00;;;;;;;;;;5075385;28;20021;-74
2022/08/10 02:15:23;;;;;;;7.80;5.00;;;;;;;;;;5075568;28;20428;-74
2022/08/10 02:17:52;;;;;;;6.72;5.25;;;;;;;;;;5075144;28;20041;-75
2022/08/10 02:20:20;;;;;;;7.05;5.28;;;;;;;;;;5075239;28;20027;-74
2022/08/10 02:22:51;;;;;;;9.63;5.40;;;;;;;;;;5075665;28;20028;-74
2022/08/10 02:25:17;;;;;;;;;;;;;;;;;;5075375;28;20029;-74
2022/08/10 02:27:45;;;;;;;7.55;5.50;;;;;;;;;;5075243;28;19908;-74
2022/08/10 02:30:11;;;;;;;13.60;5.82;;;;;;;;;;5075172;28;20483;-74
2022/08/10 02:32:38;;;;;;;10.63;5.88;;;;;;;;;;5075264;28;20016;-75
2022/08/10 02:35:07;;;;;;;9.80;5.97;;;;;;;;;;5084834;28;20046;-74
2022/08/10 02:37:34;;;;;;;9.15;6.18;;;;;;;;;;5095015;28;20043;-75
2022/08/10 02:40:01;;;;;;;8.73;6.15;;;;;;;;;;5094921;28;20042;-74
2022/08/10 02:42:30;;;;;;;12.18;7.00;;;;;;;;;;5095098;28;20030;-75
2022/08/10 02:44:59;;;;;;;11.05;6.90;;;;;;;;;;5095133;28;20024;-74
2022/08/10 02:47:42;;;;;;;10.00;7.40;;;;;;;;;;5095401;28;20027;-75
2022/08/10 02:50:19;;;;;;;12.75;7.80;;;;;;;;;;5095196;28;20440;-74
2022/08/10 02:52:47;;;;;;;14.13;8.13;;;;;;;;;;5093572;28;20028;-75
2022/08/10 02:55:21;;;;;;;13.93;7.57;;;;;;;;;;5095071;28;20474;-74
2022/08/10 02:57:51;;;;;;;15.82;8.40;;;;;;;;;;5094944;28;20042;-74
2022/08/10 03:00:18;;;;;;;11.93;6.95;;;;;;;;;;5094958;28;20028;-74
2022/08/10 03:02:45;;;;;;;12.60;6.95;;;;;;;;;;5095475;28;20039;-74
2022/08/10 03:05:13;;;;;;;16.45;7.13;;;;;;;;;;5095079;28;20026;-74
2022/08/10 03:07:53;;;;;;;10.52;7.22;;;;;;;;;;5094456;28;20036;-74
2022/08/10 03:10:24;;;;;;;13.05;8.43;;;;;;;;;;5094855;28;20028;-74
2022/08/10 03:12:50;;;;;;;;;;;;;;;;;;5095008;28;20036;-74
2022/08/10 03:15:18;;;;;;;10.98;8.07;;;;;;;;;;5094333;28;19904;-74
2022/08/10 03:17:46;;;;;;;11.43;8.07;;;;;;;;;;5094421;28;20034;-74
2022/08/10 03:20:14;;;;;;;16.60;9.25;;;;;;;;;;5093657;28;20030;-74
2022/08/10 03:22:41;;;;;;;15.90;9.25;;;;;;;;;;5094344;28;20016;-74
2022/08/10 03:25:08;;;;;;;14.48;9.80;;;;;;;;;;5094099;28;20500;-74
2022/08/10 03:27:35;;;;;;;14.60;9.35;;;;;;;;;;5094327;28;20020;-74
2022/08/10 03:30:02;;;;;;;15.38;8.98;;;;;;;;;;5094134;28;20562;-74
2022/08/10 03:32:30;;;;;;;16.30;9.02;;;;;;;;;;5094410;28;20016;-74
2022/08/10 03:34:57;;;;;;;16.30;8.70;;;;;;;;;;5094064;28;20389;-74
2022/08/10 03:37:23;;;;;;;19.13;9.75;;;;;;;;;;5093833;28;20042;-74
2022/08/10 03:39:50;;;;;;;15.10;8.60;;;;;;;;;;5094078;28;20047;-74
2022/08/10 03:42:17;;;;;;;12.75;8.85;;;;;;;;;;5093857;28;20042;-74
2022/08/10 03:44:44;;;;;;;12.80;8.82;;;;;;;;;;5092724;28;20024;-74
2022/08/10 03:47:11;;;;;;;14.90;9.20;;;;;;;;;;5094020;28;20016;-74
2022/08/10 03:49:39;;;;;;;15.65;9.88;;;;;;;;;;5093968;28;20024;-74
2022/08/10 03:52:05;;;;;;;16.48;8.80;;;;;;;;;;5093901;28;20028;-74
2022/08/10 03:54:32;;;;;;;15.15;8.85;;;;;;;;;;5093797;28;20024;-74
2022/08/10 03:56:59;;;;;;;14.63;9.10;;;;;;;;;;5093757;28;20024;-74
2022/08/10 03:59:25;;;;;;;13.02;8.45;;;;;;;;;;5093731;28;20428;-74
2022/08/10 04:01:52;;;;;;;14.75;9.00;;;;;;;;;;5093470;28;20030;-74
2022/08/10 04:04:19;;;;;;;20.20;10.10;;;;;;;;;;5093704;28;20035;-74
2022/08/10 04:06:46;;;;;;;15.65;8.90;;;;;;;;;;5093377;28;20395;-74
2022/08/10 04:09:12;;;;;;;14.43;9.48;;;;;;;;;;5093833;28;20024;-74
2022/08/10 04:11:40;;;;;;;15.48;9.70;;;;;;;;;;5093502;28;20028;-74
2022/08/10 04:14:07;;;;;;;15.35;9.32;;;;;;;;;;5093038;28;20363;-74
2022/08/10 04:16:33;;;;;;;19.02;9.98;;;;;;;;;;5093394;28;20048;-74
2022/08/10 04:19:00;;;;;;;15.43;9.63;;;;;;;;;;5093179;28;20020;-74
2022/08/10 04:21:30;;;;;;;16.77;10.15;;;;;;;;;;5093121;28;20026;-74
2022/08/10 04:23:57;;;;;;;22.10;10.83;;;;;;;;;;5093657;28;20024;-75
2022/08/10 04:26:24;;;;;;;17.67;10.20;;;;;;;;;;5092139;28;20254;-74
2022/08/10 04:28:50;;;;;;;16.80;10.13;;;;;;;;;;5093102;28;20501;-74
2022/08/10 04:31:19;;;;;;;15.77;9.75;;;;;;;;;;5093485;28;20094;-75
2022/08/10 04:33:47;;;;;;;1137.30;109.28;;;;;;;;;;5092872;28;20050;-74
2022/08/10 04:36:15;;;;;;;33.60;11.57;;;;;;;;;;5092596;28;20023;-74
2022/08/10 04:38:42;;;;;;;15.13;8.98;;;;;;;;;;5092850;28;20061;-74
2022/08/10 04:41:08;;;;;;;13.77;9.23;;;;;;;;;;5092509;28;20048;-75
2022/08/10 04:43:35;;;;;;;18.25;8.80;;;;;;;;;;5092919;28;20494;-74
2022/08/10 04:46:01;;;;;;;12.57;9.25;;;;;;;;;;5092989;28;20025;-74
2022/08/10 04:48:28;;;;;;;15.10;9.10;;;;;;;;;;5092867;28;20379;-74
2022/08/10 04:50:54;;;;;;;17.38;9.10;;;;;;;;;;5092839;28;20024;-74
2022/08/10 04:53:20;;;;;;;17.83;9.52;;;;;;;;;;5092851;28;20020;-74
2022/08/10 04:55:47;;;;;;;22.08;9.93;;;;;;;;;;5093102;28;20038;-74
2022/08/10 04:58:13;;;;;;;34.33;9.32;;;;;;;;;;5092602;28;20058;-74
2022/08/10 05:00:40;;;;;;;20.23;8.98;;;;;;;;;;5092544;28;20035;-74
2022/08/10 05:03:06;;;;;;;18.85;9.23;;;;;;;;;;5092167;28;20024;-74
2022/08/10 05:05:32;;;;;;;20.90;9.10;;;;;;;;;;5092613;28;20028;-74
2022/08/10 05:07:59;;;;;;;22.52;9.15;;;;;;;;;;5092627;28;20024;-75
2022/08/10 05:10:25;;;;;;;16.75;10.10;;;;;;;;;;5092416;28;20034;-74
2022/08/10 05:12:52;;;;;;;19.40;10.50;;;;;;;;;;5092285;28;20028;-74
2022/08/10 05:15:18;;;;;;;21.45;10.00;;;;;;;;;;5092987;28;20024;-74
2022/08/10 05:17:45;;;;;;;15.85;10.13;;;;;;;;;;5091846;28;20494;-74
2022/08/10 05:20:12;;;;;;;19.00;10.40;;;;;;;;;;5092586;28;20364;-74
2022/08/10 05:22:40;;;;;;;17.45;10.35;;;;;;;;;;5092274;28;20035;-74
2022/08/10 05:25:07;;;;;;;18.20;9.25;;;;;;;;;;5093910;28;20367;-74
2022/08/10 05:27:34;;;;;;;16.35;8.95;;;;;;;;;;5096801;28;20367;-74
2022/08/10 05:30:01;;;;;;;17.17;9.48;;;;;;;;;;5095638;28;20035;-74
2022/08/10 05:32:27;;;;;;;20.98;9.40;;;;;;;;;;5096387;28;20028;-74
2022/08/10 05:34:53;;;;;;;19.05;9.15;;;;;;;;;;5096350;28;20435;-74
2022/08/10 05:37:20;;;;;;;20.02;9.40;;;;;;;;;;5096101;28;20399;-74
2022/08/10 05:39:48;;;;;;;15.90;9.55;;;;;;;;;;5096239;28;20039;-74
2022/08/10 05:42:16;;;;;;;18.40;11.00;;;;;;;;;;5096300;28;20034;-74
2022/08/10 05:44:45;;;;;;;16.52;9.82;;;;;;;;;;5096442;28;20029;-74
2022/08/10 05:47:12;;;;;;;20.80;10.65;;;;;;;;;;5096002;28;20031;-73
2022/08/10 05:49:38;;;;;;;15.70;9.98;;;;;;;;;;5096592;28;20042;-74
2022/08/10 05:52:05;;;;;;;17.10;9.93;;;;;;;;;;5096104;28;20020;-74
2022/08/10 05:54:31;;;;;;;17.60;9.57;;;;;;;;;;5096246;28;20032;-74
2022/08/10 05:56:57;;;;;;;16.17;9.88;;;;;;;;;;5094758;28;20036;-74
2022/08/10 05:59:25;;;;;;;18.85;10.50;;;;;;;;;;5096220;28;20030;-74
2022/08/10 06:01:52;;;;;;;17.80;10.38;;;;;;;;;;5095583;28;20409;-74
2022/08/10 06:04:26;;;;;;;18.70;10.85;;;;;;;;;;5096029;28;20025;-74
2022/08/10 06:06:54;;;;;;;22.88;11.55;;;;;;;;;;5095695;28;20034;-75
2022/08/10 06:09:20;;;;;;;26.27;12.55;;;;;;;;;;5095928;28;20519;-74
2022/08/10 06:11:48;;;;;;;23.50;12.32;;;;;;;;;;5095532;28;20024;-74
2022/08/10 06:17:01;;;;;;;21.23;11.30;;;;;;;;;;5095102;28;20024;-74
2022/08/10 06:19:27;;;;;;;20.30;11.55;;;;;;;;;;5095563;28;20026;-74
2022/08/10 06:21:56;;;;;;;17.60;11.18;;;;;;;;;;5095631;28;20024;-75
2022/08/10 06:24:25;;;;;;;20.77;11.40;;;;;;;;;;5095422;28;20036;-74
2022/08/10 06:26:51;;;;;;;23.75;12.02;;;;;;;;;;5094423;28;20027;-74
2022/08/10 06:29:18;;;;;;;26.75;13.45;;;;;;;;;;5095466;28;20019;-68
2022/08/10 06:31:47;;;;;;;72.18;17.60;;;;;;;;;;5091448;28;20028;-69
2022/08/10 06:34:14;;;;;;;20.27;11.23;;;;;;;;;;5092933;28;20047;-68
2022/08/10 06:36:43;;;;;;;20.45;10.48;;;;;;;;;;5094116;28;20085;-68
2022/08/10 06:39:10;;;;;;;23.17;11.93;;;;;;;;;;5093226;28;20406;-69
2022/08/10 06:41:41;;;;;;;93.38;18.67;;;;;;;;;;5094525;28;20080;-69
2022/08/10 06:44:09;;;;;;;294.60;32.67;;;;;;;;;;5094642;28;20055;-68
2022/08/10 06:46:37;;;;;;;64.85;16.08;;;;;;;;;;5094072;28;20020;-68
2022/08/10 06:49:05;;;;;;;24.92;13.05;;;;;;;;;;5094580;28;20492;-69
2022/08/10 06:51:33;;;;;;;27.27;13.20;;;;;;;;;;5094564;28;20016;-69
2022/08/10 06:54:02;;;;;;;20.08;12.25;;;;;;;;;;5094348;28;20016;-69
2022/08/10 06:56:31;;;;;;;276.85;34.80;;;;;;;;;;5094228;28;20032;-68
2022/08/10 06:59:05;;;;;;;54.17;14.02;;;;;;;;;;5093525;28;20028;-69
2022/08/10 07:01:32;;;;;;;475.50;50.10;;;;;;;;;;5093773;28;20081;-69
2022/08/10 07:04:14;;;;;;;28.40;13.50;;;;;;;;;;5093950;28;20016;-69
2022/08/10 07:06:42;;;;;;;80.85;19.27;;;;;;;;;;5094339;28;20045;-68
2022/08/10 07:09:13;;;;;;;62.15;15.27;;;;;;;;;;5094153;28;20031;-69
2022/08/10 07:11:41;;;;;;;117.35;19.15;;;;;;;;;;5094086;28;20050;-68
2022/08/10 07:14:08;;;;;;;99.90;18.55;;;;;;;;;;5094136;28;20035;-68
2022/08/10 07:16:35;;;;;;;26.98;13.38;;;;;;;;;;5093912;28;20475;-68
2022/08/10 07:19:02;;;;;;;49.25;16.38;;;;;;;;;;5094005;28;20543;-69
2022/08/10 07:21:29;;;;;;;39.42;14.05;;;;;;;;;;5093788;28;20478;-68
2022/08/10 07:23:57;;;;;;;43.15;16.38;;;;;;;;;;5094075;28;20028;-68
2022/08/10 07:26:23;;;;;;;54.10;16.25;;;;;;;;;;5093718;28;20051;-69
2022/08/10 07:28:50;;;;;;;29.20;13.32;;;;;;;;;;5093380;28;20402;-68
2022/08/10 07:31:20;;;;;;;26.52;16.40;;;;;;;;;;5093464;28;20042;-68
2022/08/10 07:33:48;;;;;;;30.13;14.23;;;;;;;;;;5093501;28;20023;-68
2022/08/10 07:36:15;;;;;;;28.95;16.50;;;;;;;;;;5093419;28;20020;-68
2022/08/10 07:38:42;;;;;;;29.60;15.88;;;;;;;;;;5093143;28;20032;-69
2022/08/10 07:41:09;;;;;;;28.23;15.68;;;;;;;;;;5093376;28;20410;-68
2022/08/10 07:43:38;;;;;;;25.65;14.75;;;;;;;;;;5093032;28;20034;-68
2022/08/10 07:46:05;;;;;;;28.25;15.82;;;;;;;;;;5093638;28;20035;-69
2022/08/10 07:48:33;;;;;;;30.70;15.02;;;;;;;;;;5092348;28;20020;-69
2022/08/10 07:51:00;;;;;;;26.63;16.33;;;;;;;;;;5093472;28;20057;-68
2022/08/10 07:53:33;;;;;;;26.70;15.85;;;;;;;;;;5093510;28;20470;-69
2022/08/10 07:56:00;;;;;;;26.88;16.60;;;;;;;;;;5093057;28;20540;-68
2022/08/10 07:58:28;;;;;;;30.63;17.45;;;;;;;;;;5092829;28;20044;-69
2022/08/10 08:00:55;;;;;;;35.42;20.15;;;;;;;;;;5092957;28;20024;-68
2022/08/10 08:03:27;;;;;;;33.88;21.08;;;;;;;;;;5093462;28;20038;-68
2022/08/10 08:05:54;;;;;;;31.92;21.30;;;;;;;;;;5093443;28;20032;-68
2022/08/10 08:08:22;;;;;;;29.55;20.73;;;;;;;;;;5092988;28;20024;-69
2022/08/10 08:10:48;;;;;;;32.20;19.95;;;;;;;;;;5093255;28;20033;-69
2022/08/10 08:13:16;;;;;;;31.90;20.13;;;;;;;;;;5092547;28;20038;-69
2022/08/10 08:15:43;;;;;;;46.72;26.10;;;;;;;;;;5092974;28;20024;-68
2022/08/10 08:18:10;;;;;;;42.30;28.48;;;;;;;;;;5092917;28;20028;-68
2022/08/10 08:20:37;;;;;;;47.15;30.20;;;;;;;;;;5092769;28;20032;-68
2022/08/10 08:23:04;;;;;;;52.20;34.10;;;;;;;;;;5092741;28;20024;-69
2022/08/10 08:25:30;;;;;;;55.40;33.70;;;;;;;;;;5092900;28;20032;-69
2022/08/10 08:28:00;;;;;;;54.28;35.67;;;;;;;;;;5092664;28;20020;-68
2022/08/10 08:30:27;;;;;;;55.67;39.33;;;;;;;;;;5092923;28;20032;-69
2022/08/10 08:32:55;;;;;;;58.33;40.85;;;;;;;;;;5092555;28;20512;-69
2022/08/10 08:35:22;;;;;;;62.42;41.03;;;;;;;;;;5092669;28;20020;-68
2022/08/10 08:37:51;;;;;;;60.00;40.88;;;;;;;;;;5092598;28;20076;-69
2022/08/10 08:40:25;;;;;;;62.92;43.28;;;;;;;;;;5090938;28;20133;-69
2022/08/10 08:42:58;;;;;;;72.50;44.83;;;;;;;;;;5091837;28;20026;-69
2022/08/10 08:45:47;;;;;;;67.55;45.83;;;;;;;;;;5092559;28;20020;-68
2022/08/10 08:48:21;;;;;;;65.22;46.72;;;;;;;;;;5029765;28;20045;-68
2022/08/10 08:50:47;;;;;;;72.78;50.88;;;;;;;;;;5029553;28;20060;-68
2022/08/10 08:53:17;;;;;;;83.55;56.25;;;;;;;;;;5030211;28;20047;-68
2022/08/10 08:55:47;;;;;;;88.28;61.70;;;;;;;;;;5029520;28;20033;-69
2022/08/10 08:58:16;;;;;;;91.38;63.88;;;;;;;;;;5029902;28;20069;-69
2022/08/10 09:01:01;;;;;;;94.88;66.85;;;;;;;;;;5029664;28;20059;-69
2022/08/10 09:03:42;;;;;;;83.97;59.28;;;;;;;;;;5029753;28;20033;-69
2022/08/10 09:06:08;;;;;;;102.28;68.88;;;;;;;;;;5013305;28;20496;-69
2022/08/10 09:08:34;;;;;;;95.30;65.10;;;;;;;;;;5029864;28;20067;-68
2022/08/10 09:11:08;;;;;;;82.07;60.83;;;;;;;;;;5029177;28;20026;-69
2022/08/10 09:13:39;;;;;;;62.80;41.17;;;;;;;;;;5029745;28;20042;-69
2022/08/10 09:16:11;;;;;;;68.82;48.50;;;;;;;;;;5030130;28;20032;-68
2022/08/10 09:18:45;;;;;;;87.75;60.08;;;;;;;;;;5029571;28;20042;-69
2022/08/10 09:21:27;;;;;;;93.18;63.58;;;;;;;;;;5029324;28;20029;-69
2022/08/10 09:24:02;;;;;;;61.97;45.10;;;;;;;;;;5029543;28;20021;-69
2022/08/10 09:26:32;;;;;;;54.22;38.63;;;;;;;;;;5091674;28;20475;-69
2022/08/10 09:29:01;;;;;;;55.67;39.88;;;;;;;;;;5092210;28;20025;-69
2022/08/10 09:31:33;;;;;;;56.15;38.88;;;;;;;;;;5092304;28;20024;-69
2022/08/10 09:34:07;;;;;;;70.25;49.00;;;;;;;;;;5092364;28;20036;-69
2022/08/10 09:36:37;;;;;;;56.40;41.47;;;;;;;;;;5092538;28;20069;-69
2022/08/10 09:39:12;;;;;;;57.88;44.75;;;;;;;;;;5092066;28;20036;-69
2022/08/10 09:41:49;;;;;;;54.55;39.40;;;;;;;;;;5092142;28;20074;-69
2022/08/10 09:44:30;;;;;;;52.55;39.17;;;;;;;;;;5092071;28;20500;-69
2022/08/10 09:47:00;;;;;;;61.33;35.55;;;;;;;;;;5092406;28;20035;-69
2022/08/10 09:49:38;;;;;;;52.67;34.53;;;;;;;;;;5092164;28;20016;-69
2022/08/10 09:52:04;;;;;;;50.33;37.65;;;;;;;;;;5092151;28;20254;-69
2022/08/10 09:54:49;;;;;;;58.80;34.90;;;;;;;;;;5089046;28;20036;-69
2022/08/10 09:57:16;;;;;;;51.58;36.03;;;;;;;;;;5088692;28;20080;-69
2022/08/10 09:59:55;;;;;;;48.88;34.40;;;;;;;;;;5089026;28;20020;-69
2022/08/10 10:02:27;;;;;;;47.65;36.13;;;;;;;;;;5091407;28;20032;-69
2022/08/10 10:04:57;;;;;;;47.33;33.75;;;;;;;;;;5090266;28;20031;-70
2022/08/10 10:07:25;;;;;;;51.08;34.22;;;;;;;;;;5090592;28;20028;-69
2022/08/10 10:09:54;;;;;;;44.92;35.05;;;;;;;;;;5091163;28;20027;-69
2022/08/10 10:12:21;;;;;;;43.67;32.92;;;;;;;;;;5093596;28;20020;-69
2022/08/10 10:15:21;;;;;;;45.20;34.08;;;;;;;;;;5095035;28;20031;-69
2022/08/10 10:18:04;;;;;;;35.13;23.73;;;;;;;;;;5094983;28;20039;-70
2022/08/10 10:20:33;;;;;;;45.95;33.55;;;;;;;;;;5094824;28;20436;-69
2022/08/10 10:23:25;;;;;;;45.25;31.83;;;;;;;;;;5094459;28;20475;-69
2022/08/10 10:26:10;;;;;;;26.58;18.92;;;;;;;;;;5095125;28;20028;-69
2022/08/10 10:28:42;;;;;;;15.68;7.60;;;;;;;;;;5095184;28;20024;-69
2022/08/10 10:31:09;;;;;;;38.42;29.30;;;;;;;;;;5094863;28;20024;-69
2022/08/10 10:33:39;;;;;;;34.08;25.48;;;;;;;;;;5095000;28;20021;-69
2022/08/10 10:36:05;;;;;;;;;;;;;;;;;;5090681;28;20024;-69
2022/08/10 10:38:34;;;;;;;26.65;19.60;;;;;;;;;;5092496;28;19916;-69
2022/08/10 10:41:10;;;;;;;7.82;5.40;;;;;;;;;;5093522;28;20048;-69
2022/08/10 10:43:36;;;;;;;29.95;18.98;;;;;;;;;;5094527;28;20027;-69
2022/08/10 10:46:08;;;;;;;28.02;22.05;;;;;;;;;;5093927;28;20405;-69
2022/08/10 10:48:41;;;;;;;6.78;4.13;;;;;;;;;;5093713;28;20364;-69
2022/08/10 10:51:12;;;;;;;15.27;8.55;;;;;;;;;;5094036;28;20036;-69
2022/08/10 10:54:01;;;;;;;5.72;3.95;;;;;;;;;;5094463;28;20016;-69
2022/08/10 10:56:46;;;;;;;11.23;7.70;;;;;;;;;;5094457;28;20077;-69
2022/08/10 10:59:14;;;;;;;4.80;2.05;;;;;;;;;;5094403;28;20028;-70
2022/08/10 11:01:59;;;;;;;15.80;10.20;;;;;;;;;;5094143;28;20032;-69
2022/08/10 11:04:40;;;;;;;4.97;3.08;;;;;;;;;;5093231;28;20024;-69
2022/08/10 11:07:15;;;;;;;6.55;4.43;;;;;;;;;;5093836;28;20437;-69
2022/08/10 11:09:45;;;;;;;7.05;3.85;;;;;;;;;;5094421;28;20023;-69
2022/08/10 11:12:21;;;;;;;8.10;1.98;;;;;;;;;;5094036;28;20024;-70
2022/08/10 11:14:50;;;;;;;11.30;8.80;;;;;;;;;;5094278;28;20028;-69
2022/08/10 11:17:22;;;;;;;22.27;3.30;;;;;;;;;;5094039;28;20040;-70
2022/08/10 11:19:54;;;;;;;7.25;6.00;;;;;;;;;;5093917;28;20020;-69
2022/08/10 11:22:33;;;;;;;6.15;3.53;;;;;;;;;;5092228;28;20065;-69
2022/08/10 11:25:11;;;;;;;7.97;4.57;;;;;;;;;;5094271;28;20020;-69
2022/08/10 11:27:42;;;;;;;5.70;4.68;;;;;;;;;;5093830;28;20016;-69
2022/08/10 11:30:09;;;;;;;;;;;;;;;;;;5094763;28;20104;-70
2022/08/10 11:32:35;;;;;;;3.25;2.10;;;;;;;;;;5092193;28;19904;-69
2022/08/10 11:35:11;;;;;;;2.78;2.30;;;;;;;;;;5093379;28;20030;-69
2022/08/10 11:37:37;;;;;;;2.50;1.90;;;;;;;;;;5093156;28;20047;-69
2022/08/10 11:40:17;;;;;;;5.47;2.72;;;;;;;;;;5093688;28;20056;-69
2022/08/10 11:42:50;;;;;;;2.45;1.48;;;;;;;;;;5093764;28;20040;-69
2022/08/10 11:45:17;;;;;;;2.90;2.40;;;;;;;;;;5093480;28;20036;-70
2022/08/10 11:48:06;;;;;;;5.43;4.18;;;;;;;;;;5093796;28;20032;-70
2022/08/10 11:50:43;;;;;;;4.30;2.55;;;;;;;;;;5125567;27;20031;-69
2022/08/10 11:53:26;;;;;;;2.35;1.35;;;;;;;;;;5093462;28;20407;-70
2022/08/10 11:55:57;;;;;;;3.00;2.50;;;;;;;;;;5093279;28;20486;-70
2022/08/10 12:01:15;;;;;;;2.42;1.98;;;;;;;;;;5126224;27;20474;-69
2022/08/10 12:03:42;;;;;;;1.80;1.55;;;;;;;;;;5092785;28;20393;-69
2022/08/10 12:06:12;;;;;;;3.53;1.60;;;;;;;;;;5093281;28;20035;-69
2022/08/10 12:08:41;;;;;;;4.20;3.33;;;;;;;;;;5093300;28;20034;-69
2022/08/10 12:11:08;;;;;;;3.50;3.17;;;;;;;;;;5093244;28;20054;-69
2022/08/10 12:13:55;;;;;;;3.90;3.28;;;;;;;;;;5093146;28;20050;-69
2022/08/10 12:16:23;;;;;;;2.85;2.28;;;;;;;;;;5082538;28;20036;-69
2022/08/10 12:18:58;;;;;;;4.30;3.10;;;;;;;;;;5092511;28;20045;-69
2022/08/10 12:21:27;;;;;;;5.05;3.22;;;;;;;;;;5091937;28;20402;-69
2022/08/10 12:24:02;;;;;;;3.55;2.03;;;;;;;;;;5092463;28;20047;-69
2022/08/10 12:26:33;;;;;;;3.83;2.97;;;;;;;;;;5092266;28;20481;-69
2022/08/10 12:29:00;;;;;;;2.03;1.83;;;;;;;;;;5092320;28;20025;-69
2022/08/10 12:31:29;;;;;;;2.05;1.60;;;;;;;;;;5092631;28;20028;-69
2022/08/10 12:34:06;;;;;;;5.05;1.50;;;;;;;;;;5091776;28;20027;-69
2022/08/10 12:36:42;;;;;;;4.78;1.35;;;;;;;;;;5092412;28;20024;-69
2022/08/10 12:39:13;;;;;;;3.47;1.40;;;;;;;;;;5092097;28;20050;-69
2022/08/10 12:41:43;;;;;;;6.22;1.35;;;;;;;;;;5092462;28;20036;-69
2022/08/10 12:44:12;;;;;;;3.27;1.60;;;;;;;;;;5020966;28;20309;-69
2022/08/10 12:46:42;;;;;;;3.57;1.40;;;;;;;;;;5032227;28;20030;-69
2022/08/10 12:49:13;;;;;;;3.50;2.03;;;;;;;;;;5031848;28;20298;-69
2022/08/10 12:51:45;;;;;;;2.97;1.98;;;;;;;;;;5032448;28;20033;-69
2022/08/10 12:54:12;;;;;;;3.42;2.17;;;;;;;;;;5032264;28;20079;-70
2022/08/10 12:56:59;;;;;;;3.22;1.60;;;;;;;;;;5031855;28;20036;-69
2022/08/10 12:59:26;;;;;;;1.77;1.58;;;;;;;;;;5032220;28;20041;-70
2022/08/10 13:01:54;;;;;;;2.33;1.75;;;;;;;;;;5031980;28;20025;-70
2022/08/10 13:04:31;;;;;;;3.13;2.10;;;;;;;;;;5031928;28;20033;-69
2022/08/10 13:06:59;;;;;;;2.22;2.00;;;;;;;;;;5031909;28;20395;-69
2022/08/10 13:09:27;;;;;;;3.47;1.52;;;;;;;;;;5030709;28;20365;-69
2022/08/10 13:12:08;;;;;;;8.57;1.88;;;;;;;;;;5031912;28;20032;-69
2022/08/10 13:14:37;;;;;;;4.97;2.08;;;;;;;;;;5032151;28;20522;-69
2022/08/10 13:17:06;;;;;;;2.35;1.65;;;;;;;;;;5031131;28;20431;-69
2022/08/10 13:19:35;;;;;;;4.95;1.60;;;;;;;;;;5031718;28;20395;-69
2022/08/10 13:22:02;;;;;;;3.38;1.80;;;;;;;;;;5031856;28;20022;-69
2022/08/10 13:24:32;;;;;;;2.30;2.00;;;;;;;;;;5031748;28;20025;-70
2022/08/10 13:27:09;;;;;;;3.70;1.70;;;;;;;;;;5031842;28;20024;-69
2022/08/10 13:29:41;;;;;;;5.25;1.90;;;;;;;;;;5030221;28;20030;-70
2022/08/10 13:32:08;;;;;;;2.15;1.80;;;;;;;;;;5031671;28;20043;-70
2022/08/10 13:34:36;;;;;;;3.80;2.08;;;;;;;;;;5031657;28;20480;-69
2022/08/10 13:37:08;;;;;;;3.45;2.08;;;;;;;;;;5031429;28;20034;-69
2022/08/10 13:39:40;;;;;;;2.72;1.50;;;;;;;;;;5031358;28;20049;-70
2022/08/10 13:42:08;;;;;;;5.85;1.83;;;;;;;;;;5031651;28;20483;-69
2022/08/10 13:44:37;;;;;;;2.08;1.80;;;;;;;;;;5031640;28;20030;-70
2022/08/10 13:47:04;;;;;;;2.45;1.70;;;;;;;;;;5033993;28;20025;-69
2022/08/10 13:49:32;;;;;;;2.63;1.73;;;;;;;;;;5035660;28;20029;-69
2022/08/10 13:51:58;;;;;;;2.30;1.70;;;;;;;;;;5035480;28;20488;-69
2022/08/10 13:54:26;;;;;;;1.80;1.50;;;;;;;;;;5035266;28;20025;-69
2022/08/10 13:56:53;;;;;;;5.95;1.98;;;;;;;;;;5035313;28;20024;-70
2022/08/10 13:59:20;;;;;;;6.18;2.00;;;;;;;;;;5035774;28;20034;-69
2022/08/10 14:01:48;;;;;;;5.05;1.70;;;;;;;;;;5035210;28;20025;-69
2022/08/10 14:04:14;;;;;;;3.65;1.90;;;;;;;;;;5034438;28;20029;-70
2022/08/10 14:06:41;;;;;;;9.07;1.88;;;;;;;;;;5035647;28;20034;-69
2022/08/10 14:09:11;;;;;;;5.05;1.75;;;;;;;;;;5035024;28;20063;-70
2022/08/10 14:11:38;;;;;;;3.47;1.80;;;;;;;;;;5035335;28;20079;-70
2022/08/10 14:14:06;;;;;;;3.30;1.98;;;;;;;;;;5034940;28;20294;-74
2022/08/10 14:16:33;;;;;;;5.25;1.70;;;;;;;;;;5035243;28;20033;-75
2022/08/10 14:19:04;;;;;;;8.15;1.73;;;;;;;;;;5034849;28;20116;-75
2022/08/10 14:21:32;;;;;;;4.25;1.92;;;;;;;;;;5035050;28;20025;-74
2022/08/10 14:23:58;;;;;;;4.45;1.83;;;;;;;;;;5035288;28;20014;-74
2022/08/10 14:26:27;;;;;;;4.78;1.70;;;;;;;;;;5034956;28;20468;-74
2022/08/10 14:28:55;;;;;;;9.20;1.92;;;;;;;;;;5034434;28;20071;-75
2022/08/10 14:31:24;;;;;;;3.28;1.77;;;;;;;;;;5034934;28;20025;-73
2022/08/10 14:33:53;;;;;;;2.60;1.80;;;;;;;;;;5033311;28;20384;-74
2022/08/10 14:36:25;;;;;;;5.93;2.05;;;;;;;;;;5017556;28;20407;-74
2022/08/10 14:38:53;;;;;;;6.20;2.00;;;;;;;;;;5035165;28;20483;-74
2022/08/10 14:41:24;;;;;;;3.00;2.30;;;;;;;;;;5034952;28;20508;-74
2022/08/10 14:44:04;;;;;;;7.00;2.10;;;;;;;;;;5034621;28;20045;-74
2022/08/10 14:46:30;;;;;;;;;;;;;;;;;;5035202;28;20033;-74
2022/08/10 14:48:58;;;;;;;4.93;2.30;;;;;;;;;;5034951;28;19912;-74
2022/08/10 14:51:28;;;;;;;2.97;2.00;;;;;;;;;;5034928;28;20033;-74
2022/08/10 14:53:57;;;;;;;3.20;1.95;;;;;;;;;;5035408;28;20031;-74